sensor_id;sensor_type;location;lat;lon;timestamp;P1;durP1;ratioP1;P2;durP2;ratioP2
18973;SDS011;9621;48.690;9.466;2023-07-22T00:00:18;7.07;;;3.85;;
18973;SDS011;9621;48.690;9.466;2023-07-22T00:02:47;4.78;;;3.58;;
18973;SDS011;9621;48.690;9.466;2023-07-22T00:05:14;5.80;;;3.72;;
18973;SDS011;9621;48.690;9.466;2023-07-22T00:07:41;7.35;;;3.47;;
18973;SDS011;9621;48.690;9.466;2023-07-22T00:10:08;7.80;;;3.33;;
18973;SDS011;9621;48.690;9.466;2023-07-22T00:12:37;6.15;;;3.25;;
18973;SDS011;9621;48.690;9.466;2023-07-22T00:15:04;4.15;;;2.63;;
18973;SDS011;9621;48.690;9.466;2023-07-22T00:17:31;6.82;;;4.10;;
18973;SDS011;9621;48.690;9.466;2023-07-22T00:19:58;5.25;;;3.20;;
18973;SDS011;9621;48.690;9.466;2023-07-22T00:22:25;4.55;;;3.25;;
18973;SDS011;9621;48.690;9.466;2023-07-22T00:24:52;6.78;;;3.25;;
18973;SDS011;9621;48.690;9.466;2023-07-22T00:27:19;9.40;;;4.72;;
18973;SDS011;9621;48.690;9.466;2023-07-22T00:29:47;8.63;;;4.35;;
18973;SDS011;9621;48.690;9.466;2023-07-22T00:32:14;9.82;;;4.55;;
18973;SDS011;9621;48.690;9.466;2023-07-22T00:34:40;8.20;;;5.30;;
18973;SDS011;9621;48.690;9.466;2023-07-22T00:37:07;10.95;;;5.10;;
18973;SDS011;9621;48.690;9.466;2023-07-22T00:39:34;8.15;;;5.53;;
18973;SDS011;9621;48.690;9.466;2023-07-22T00:42:01;9.77;;;5.07;;
18973;SDS011;9621;48.690;9.466;2023-07-22T00:44:28;9.23;;;4.97;;
18973;SDS011;9621;48.690;9.466;2023-07-22T00:46:56;16.55;;;5.18;;
18973;SDS011;9621;48.690;9.466;2023-07-22T00:49:23;16.80;;;5.13;;
18973;SDS011;9621;48.690;9.466;2023-07-22T00:51:52;12.10;;;4.57;;
18973;SDS011;9621;48.690;9.466;2023-07-22T00:54:19;11.13;;;4.70;;
18973;SDS011;9621;48.690;9.466;2023-07-22T00:56:45;23.60;;;5.70;;
18973;SDS011;9621;48.690;9.466;2023-07-22T00:59:14;18.73;;;5.30;;
18973;SDS011;9621;48.690;9.466;2023-07-22T01:01:42;18.02;;;4.65;;
18973;SDS011;9621;48.690;9.466;2023-07-22T01:04:13;8.40;;;4.00;;
18973;SDS011;9621;48.690;9.466;2023-07-22T01:06:40;4.93;;;3.33;;
18973;SDS011;9621;48.690;9.466;2023-07-22T01:09:09;6.20;;;3.55;;
18973;SDS011;9621;48.690;9.466;2023-07-22T01:11:36;5.55;;;3.50;;
18973;SDS011;9621;48.690;9.466;2023-07-22T01:14:03;5.65;;;3.40;;
18973;SDS011;9621;48.690;9.466;2023-07-22T01:16:30;8.48;;;3.60;;
18973;SDS011;9621;48.690;9.466;2023-07-22T01:18:57;3.88;;;2.83;;
18973;SDS011;9621;48.690;9.466;2023-07-22T01:21:25;7.63;;;3.45;;
18973;SDS011;9621;48.690;9.466;2023-07-22T01:23:55;4.97;;;3.45;;
18973;SDS011;9621;48.690;9.466;2023-07-22T01:26:22;5.38;;;3.67;;
18973;SDS011;9621;48.690;9.466;2023-07-22T01:28:49;6.30;;;3.67;;
18973;SDS011;9621;48.690;9.466;2023-07-22T01:31:16;3.92;;;3.00;;
18973;SDS011;9621;48.690;9.466;2023-07-22T01:33:43;3.10;;;2.80;;
18973;SDS011;9621;48.690;9.466;2023-07-22T01:36:10;3.35;;;2.92;;
18973;SDS011;9621;48.690;9.466;2023-07-22T01:38:37;7.05;;;3.30;;
18973;SDS011;9621;48.690;9.466;2023-07-22T01:41:06;3.75;;;3.13;;
18973;SDS011;9621;48.690;9.466;2023-07-22T01:43:32;5.32;;;3.38;;
18973;SDS011;9621;48.690;9.466;2023-07-22T01:45:59;4.55;;;3.10;;
18973;SDS011;9621;48.690;9.466;2023-07-22T01:48:26;3.35;;;3.03;;
18973;SDS011;9621;48.690;9.466;2023-07-22T01:50:53;4.85;;;3.42;;
18973;SDS011;9621;48.690;9.466;2023-07-22T01:53:20;3.30;;;2.97;;
18973;SDS011;9621;48.690;9.466;2023-07-22T01:55:47;4.55;;;2.72;;
18973;SDS011;9621;48.690;9.466;2023-07-22T01:58:15;5.10;;;3.33;;
18973;SDS011;9621;48.690;9.466;2023-07-22T02:00:42;5.57;;;3.40;;
18973;SDS011;9621;48.690;9.466;2023-07-22T02:03:09;3.88;;;2.95;;
18973;SDS011;9621;48.690;9.466;2023-07-22T02:05:35;6.75;;;3.30;;
18973;SDS011;9621;48.690;9.466;2023-07-22T02:08:02;3.80;;;3.17;;
18973;SDS011;9621;48.690;9.466;2023-07-22T02:10:30;5.90;;;3.20;;
18973;SDS011;9621;48.690;9.466;2023-07-22T02:12:56;4.40;;;3.00;;
18973;SDS011;9621;48.690;9.466;2023-07-22T02:15:25;4.85;;;2.97;;
18973;SDS011;9621;48.690;9.466;2023-07-22T02:17:51;4.63;;;3.58;;
18973;SDS011;9621;48.690;9.466;2023-07-22T02:20:20;4.55;;;3.20;;
18973;SDS011;9621;48.690;9.466;2023-07-22T02:22:47;4.07;;;3.05;;
18973;SDS011;9621;48.690;9.466;2023-07-22T02:25:14;5.00;;;2.97;;
18973;SDS011;9621;48.690;9.466;2023-07-22T02:27:41;6.78;;;3.00;;
18973;SDS011;9621;48.690;9.466;2023-07-22T02:30:08;3.95;;;2.63;;
18973;SDS011;9621;48.690;9.466;2023-07-22T02:32:38;3.83;;;2.92;;
18973;SDS011;9621;48.690;9.466;2023-07-22T02:35:06;3.35;;;2.72;;
18973;SDS011;9621;48.690;9.466;2023-07-22T02:37:33;4.32;;;2.85;;
18973;SDS011;9621;48.690;9.466;2023-07-22T02:40:01;4.53;;;2.63;;
18973;SDS011;9621;48.690;9.466;2023-07-22T02:42:32;16.50;;;3.30;;
18973;SDS011;9621;48.690;9.466;2023-07-22T02:45:00;3.33;;;3.00;;
18973;SDS011;9621;48.690;9.466;2023-07-22T02:47:27;3.70;;;2.97;;
18973;SDS011;9621;48.690;9.466;2023-07-22T02:49:55;5.30;;;2.60;;
18973;SDS011;9621;48.690;9.466;2023-07-22T02:52:22;4.25;;;3.03;;
18973;SDS011;9621;48.690;9.466;2023-07-22T02:55:03;4.28;;;2.50;;
18973;SDS011;9621;48.690;9.466;2023-07-22T02:57:31;3.05;;;2.50;;
18973;SDS011;9621;48.690;9.466;2023-07-22T02:59:58;5.88;;;2.90;;
18973;SDS011;9621;48.690;9.466;2023-07-22T03:02:25;4.05;;;2.80;;
18973;SDS011;9621;48.690;9.466;2023-07-22T03:04:52;5.30;;;3.35;;
18973;SDS011;9621;48.690;9.466;2023-07-22T03:07:20;7.05;;;3.80;;
18973;SDS011;9621;48.690;9.466;2023-07-22T03:09:47;5.07;;;3.55;;
18973;SDS011;9621;48.690;9.466;2023-07-22T03:12:14;5.63;;;3.53;;
18973;SDS011;9621;48.690;9.466;2023-07-22T03:14:41;5.80;;;3.55;;
18973;SDS011;9621;48.690;9.466;2023-07-22T03:17:08;4.50;;;3.40;;
18973;SDS011;9621;48.690;9.466;2023-07-22T03:19:35;5.45;;;3.75;;
18973;SDS011;9621;48.690;9.466;2023-07-22T03:22:02;6.07;;;3.53;;
18973;SDS011;9621;48.690;9.466;2023-07-22T03:24:30;4.97;;;3.40;;
18973;SDS011;9621;48.690;9.466;2023-07-22T03:26:57;9.52;;;3.63;;
18973;SDS011;9621;48.690;9.466;2023-07-22T03:29:24;5.75;;;3.17;;
18973;SDS011;9621;48.690;9.466;2023-07-22T03:31:51;5.15;;;3.10;;
18973;SDS011;9621;48.690;9.466;2023-07-22T03:34:18;5.68;;;3.40;;
18973;SDS011;9621;48.690;9.466;2023-07-22T03:36:45;3.78;;;3.05;;
18973;SDS011;9621;48.690;9.466;2023-07-22T03:39:12;4.63;;;3.20;;
18973;SDS011;9621;48.690;9.466;2023-07-22T03:41:40;4.47;;;3.30;;
18973;SDS011;9621;48.690;9.466;2023-07-22T03:44:07;4.47;;;3.38;;
18973;SDS011;9621;48.690;9.466;2023-07-22T03:46:34;5.13;;;3.40;;
18973;SDS011;9621;48.690;9.466;2023-07-22T03:52:23;5.18;;;3.17;;
18973;SDS011;9621;48.690;9.466;2023-07-22T03:54:50;6.80;;;3.20;;
18973;SDS011;9621;48.690;9.466;2023-07-22T03:57:18;4.40;;;3.25;;
18973;SDS011;9621;48.690;9.466;2023-07-22T03:59:44;4.35;;;3.20;;
18973;SDS011;9621;48.690;9.466;2023-07-22T04:02:11;5.57;;;3.78;;
18973;SDS011;9621;48.690;9.466;2023-07-22T04:04:38;5.70;;;3.17;;
18973;SDS011;9621;48.690;9.466;2023-07-22T04:07:05;4.00;;;3.40;;
18973;SDS011;9621;48.690;9.466;2023-07-22T04:09:33;5.28;;;3.58;;
18973;SDS011;9621;48.690;9.466;2023-07-22T04:12:00;4.40;;;3.30;;
18973;SDS011;9621;48.690;9.466;2023-07-22T04:14:29;6.93;;;3.10;;
18973;SDS011;9621;48.690;9.466;2023-07-22T04:16:55;5.95;;;3.10;;
18973;SDS011;9621;48.690;9.466;2023-07-22T04:19:23;5.45;;;3.78;;
18973;SDS011;9621;48.690;9.466;2023-07-22T04:21:50;5.60;;;3.42;;
18973;SDS011;9621;48.690;9.466;2023-07-22T04:24:19;4.93;;;4.00;;
18973;SDS011;9621;48.690;9.466;2023-07-22T04:26:46;9.02;;;3.70;;
18973;SDS011;9621;48.690;9.466;2023-07-22T04:29:13;7.13;;;3.85;;
18973;SDS011;9621;48.690;9.466;2023-07-22T04:31:42;5.57;;;3.78;;
18973;SDS011;9621;48.690;9.466;2023-07-22T04:34:09;5.85;;;3.67;;
18973;SDS011;9621;48.690;9.466;2023-07-22T04:36:37;4.93;;;3.38;;
18973;SDS011;9621;48.690;9.466;2023-07-22T04:39:04;5.43;;;3.70;;
18973;SDS011;9621;48.690;9.466;2023-07-22T04:41:32;9.35;;;3.67;;
18973;SDS011;9621;48.690;9.466;2023-07-22T04:43:59;5.05;;;3.58;;
18973;SDS011;9621;48.690;9.466;2023-07-22T04:46:25;5.97;;;3.28;;
18973;SDS011;9621;48.690;9.466;2023-07-22T04:48:55;6.03;;;3.67;;
18973;SDS011;9621;48.690;9.466;2023-07-22T04:54:45;5.43;;;3.45;;
18973;SDS011;9621;48.690;9.466;2023-07-22T04:57:12;4.13;;;3.05;;
18973;SDS011;9621;48.690;9.466;2023-07-22T04:59:39;6.95;;;3.55;;
18973;SDS011;9621;48.690;9.466;2023-07-22T05:02:06;4.88;;;3.00;;
18973;SDS011;9621;48.690;9.466;2023-07-22T05:04:34;6.38;;;3.20;;
18973;SDS011;9621;48.690;9.466;2023-07-22T05:07:01;3.67;;;3.08;;
18973;SDS011;9621;48.690;9.466;2023-07-22T05:09:28;3.92;;;3.15;;
18973;SDS011;9621;48.690;9.466;2023-07-22T05:11:54;5.68;;;3.50;;
18973;SDS011;9621;48.690;9.466;2023-07-22T05:14:21;3.58;;;3.28;;
18973;SDS011;9621;48.690;9.466;2023-07-22T05:16:49;6.15;;;3.72;;
18973;SDS011;9621;48.690;9.466;2023-07-22T05:19:16;5.03;;;3.65;;
18973;SDS011;9621;48.690;9.466;2023-07-22T05:21:45;5.00;;;3.47;;
18973;SDS011;9621;48.690;9.466;2023-07-22T05:24:12;5.03;;;3.58;;
18973;SDS011;9621;48.690;9.466;2023-07-22T05:30:01;4.55;;;3.67;;
18973;SDS011;9621;48.690;9.466;2023-07-22T05:32:28;4.65;;;3.97;;
18973;SDS011;9621;48.690;9.466;2023-07-22T05:34:55;4.97;;;3.40;;
18973;SDS011;9621;48.690;9.466;2023-07-22T05:37:24;5.75;;;3.95;;
18973;SDS011;9621;48.690;9.466;2023-07-22T05:39:51;4.63;;;3.50;;
18973;SDS011;9621;48.690;9.466;2023-07-22T05:42:19;5.65;;;3.40;;
18973;SDS011;9621;48.690;9.466;2023-07-22T05:44:47;4.35;;;3.35;;
18973;SDS011;9621;48.690;9.466;2023-07-22T05:47:14;5.45;;;3.33;;
18973;SDS011;9621;48.690;9.466;2023-07-22T05:49:41;6.72;;;3.67;;
18973;SDS011;9621;48.690;9.466;2023-07-22T05:52:07;6.53;;;4.32;;
18973;SDS011;9621;48.690;9.466;2023-07-22T05:54:36;6.55;;;3.92;;
18973;SDS011;9621;48.690;9.466;2023-07-22T05:57:04;7.90;;;4.78;;
18973;SDS011;9621;48.690;9.466;2023-07-22T05:59:31;7.13;;;4.47;;
18973;SDS011;9621;48.690;9.466;2023-07-22T06:02:01;8.13;;;4.38;;
18973;SDS011;9621;48.690;9.466;2023-07-22T06:04:31;6.82;;;4.55;;
18973;SDS011;9621;48.690;9.466;2023-07-22T06:06:59;9.05;;;4.55;;
18973;SDS011;9621;48.690;9.466;2023-07-22T06:09:46;5.95;;;4.07;;
18973;SDS011;9621;48.690;9.466;2023-07-22T06:12:21;4.82;;;3.72;;
18973;SDS011;9621;48.690;9.466;2023-07-22T06:14:53;5.57;;;3.70;;
18973;SDS011;9621;48.690;9.466;2023-07-22T06:17:19;5.80;;;3.70;;
18973;SDS011;9621;48.690;9.466;2023-07-22T06:19:46;6.07;;;3.38;;
18973;SDS011;9621;48.690;9.466;2023-07-22T06:22:13;4.55;;;3.45;;
18973;SDS011;9621;48.690;9.466;2023-07-22T06:24:41;5.65;;;3.35;;
18973;SDS011;9621;48.690;9.466;2023-07-22T06:27:08;7.00;;;3.65;;
18973;SDS011;9621;48.690;9.466;2023-07-22T06:29:35;4.68;;;3.22;;
18973;SDS011;9621;48.690;9.466;2023-07-22T06:32:02;5.20;;;3.15;;
18973;SDS011;9621;48.690;9.466;2023-07-22T06:34:29;4.72;;;3.00;;
18973;SDS011;9621;48.690;9.466;2023-07-22T06:36:56;3.97;;;2.90;;
18973;SDS011;9621;48.690;9.466;2023-07-22T06:39:23;5.13;;;3.33;;
18973;SDS011;9621;48.690;9.466;2023-07-22T06:41:51;5.03;;;3.30;;
18973;SDS011;9621;48.690;9.466;2023-07-22T06:44:18;4.40;;;3.08;;
18973;SDS011;9621;48.690;9.466;2023-07-22T06:46:44;6.80;;;3.15;;
18973;SDS011;9621;48.690;9.466;2023-07-22T06:49:11;4.28;;;2.78;;
18973;SDS011;9621;48.690;9.466;2023-07-22T06:51:38;4.53;;;2.75;;
18973;SDS011;9621;48.690;9.466;2023-07-22T06:54:05;4.35;;;3.00;;
18973;SDS011;9621;48.690;9.466;2023-07-22T06:56:32;4.07;;;2.90;;
18973;SDS011;9621;48.690;9.466;2023-07-22T06:59:00;4.53;;;2.67;;
18973;SDS011;9621;48.690;9.466;2023-07-22T07:01:28;4.68;;;3.47;;
18973;SDS011;9621;48.690;9.466;2023-07-22T07:03:54;4.40;;;2.80;;
18973;SDS011;9621;48.690;9.466;2023-07-22T07:06:21;4.15;;;2.78;;
18973;SDS011;9621;48.690;9.466;2023-07-22T07:08:48;3.97;;;3.10;;
18973;SDS011;9621;48.690;9.466;2023-07-22T07:11:15;4.40;;;2.58;;
18973;SDS011;9621;48.690;9.466;2023-07-22T07:13:42;3.20;;;2.55;;
18973;SDS011;9621;48.690;9.466;2023-07-22T07:16:23;4.63;;;2.60;;
18973;SDS011;9621;48.690;9.466;2023-07-22T07:21:21;5.18;;;2.50;;
18973;SDS011;9621;48.690;9.466;2023-07-22T07:23:48;4.60;;;2.90;;
18973;SDS011;9621;48.690;9.466;2023-07-22T07:26:15;3.35;;;2.47;;
18973;SDS011;9621;48.690;9.466;2023-07-22T07:28:42;4.20;;;2.55;;
18973;SDS011;9621;48.690;9.466;2023-07-22T07:31:09;3.55;;;2.53;;
18973;SDS011;9621;48.690;9.466;2023-07-22T07:33:37;3.03;;;2.25;;
18973;SDS011;9621;48.690;9.466;2023-07-22T07:36:04;4.43;;;2.50;;
18973;SDS011;9621;48.690;9.466;2023-07-22T07:38:31;5.35;;;2.42;;
18973;SDS011;9621;48.690;9.466;2023-07-22T07:40:59;7.50;;;2.75;;
18973;SDS011;9621;48.690;9.466;2023-07-22T07:43:29;3.75;;;2.13;;
18973;SDS011;9621;48.690;9.466;2023-07-22T07:46:15;5.78;;;2.22;;
18973;SDS011;9621;48.690;9.466;2023-07-22T07:48:45;5.28;;;2.30;;
18973;SDS011;9621;48.690;9.466;2023-07-22T07:51:13;2.67;;;2.00;;
18973;SDS011;9621;48.690;9.466;2023-07-22T07:53:40;2.72;;;1.88;;
18973;SDS011;9621;48.690;9.466;2023-07-22T07:56:07;2.95;;;2.03;;
18973;SDS011;9621;48.690;9.466;2023-07-22T07:58:34;3.08;;;2.05;;
18973;SDS011;9621;48.690;9.466;2023-07-22T08:01:01;2.13;;;1.80;;
18973;SDS011;9621;48.690;9.466;2023-07-22T08:03:28;3.20;;;1.73;;
18973;SDS011;9621;48.690;9.466;2023-07-22T08:05:57;6.68;;;1.90;;
18973;SDS011;9621;48.690;9.466;2023-07-22T08:08:24;2.38;;;1.58;;
18973;SDS011;9621;48.690;9.466;2023-07-22T08:10:57;2.97;;;1.70;;
18973;SDS011;9621;48.690;9.466;2023-07-22T08:13:25;2.88;;;1.67;;
18973;SDS011;9621;48.690;9.466;2023-07-22T08:15:54;5.10;;;1.80;;
18973;SDS011;9621;48.690;9.466;2023-07-22T08:18:21;2.58;;;1.50;;
18973;SDS011;9621;48.690;9.466;2023-07-22T08:20:48;2.63;;;1.98;;
18973;SDS011;9621;48.690;9.466;2023-07-22T08:23:17;2.42;;;1.60;;
18973;SDS011;9621;48.690;9.466;2023-07-22T08:25:43;4.47;;;1.60;;
18973;SDS011;9621;48.690;9.466;2023-07-22T08:28:10;5.68;;;1.73;;
18973;SDS011;9621;48.690;9.466;2023-07-22T08:30:37;2.20;;;1.30;;
18973;SDS011;9621;48.690;9.466;2023-07-22T08:33:05;2.35;;;1.70;;
18973;SDS011;9621;48.690;9.466;2023-07-22T08:35:33;2.42;;;1.70;;
18973;SDS011;9621;48.690;9.466;2023-07-22T08:38:00;2.17;;;1.50;;
18973;SDS011;9621;48.690;9.466;2023-07-22T08:40:33;2.05;;;1.55;;
18973;SDS011;9621;48.690;9.466;2023-07-22T08:43:01;3.22;;;1.70;;
18973;SDS011;9621;48.690;9.466;2023-07-22T08:45:30;3.30;;;1.83;;
18973;SDS011;9621;48.690;9.466;2023-07-22T08:47:59;3.35;;;1.70;;
18973;SDS011;9621;48.690;9.466;2023-07-22T08:50:32;2.33;;;1.58;;
18973;SDS011;9621;48.690;9.466;2023-07-22T08:53:03;1.67;;;1.35;;
18973;SDS011;9621;48.690;9.466;2023-07-22T08:55:30;2.30;;;1.50;;
18973;SDS011;9621;48.690;9.466;2023-07-22T08:57:58;2.65;;;1.58;;
18973;SDS011;9621;48.690;9.466;2023-07-22T09:00:25;2.53;;;1.25;;
18973;SDS011;9621;48.690;9.466;2023-07-22T09:02:53;2.30;;;1.50;;
18973;SDS011;9621;48.690;9.466;2023-07-22T09:05:20;2.33;;;1.42;;
18973;SDS011;9621;48.690;9.466;2023-07-22T09:07:47;3.08;;;1.35;;
18973;SDS011;9621;48.690;9.466;2023-07-22T09:10:15;2.25;;;1.60;;
18973;SDS011;9621;48.690;9.466;2023-07-22T09:12:42;4.10;;;1.30;;
18973;SDS011;9621;48.690;9.466;2023-07-22T09:15:11;1.80;;;1.45;;
18973;SDS011;9621;48.690;9.466;2023-07-22T09:17:38;2.28;;;1.20;;
18973;SDS011;9621;48.690;9.466;2023-07-22T09:20:06;1.58;;;1.20;;
18973;SDS011;9621;48.690;9.466;2023-07-22T09:22:34;1.60;;;1.33;;
18973;SDS011;9621;48.690;9.466;2023-07-22T09:25:14;3.67;;;1.58;;
18973;SDS011;9621;48.690;9.466;2023-07-22T09:27:43;1.80;;;1.70;;
18973;SDS011;9621;48.690;9.466;2023-07-22T09:30:21;1.30;;;1.00;;
18973;SDS011;9621;48.690;9.466;2023-07-22T09:32:49;2.08;;;1.20;;
18973;SDS011;9621;48.690;9.466;2023-07-22T09:35:17;1.50;;;1.27;;
18973;SDS011;9621;48.690;9.466;2023-07-22T09:37:44;2.42;;;1.50;;
18973;SDS011;9621;48.690;9.466;2023-07-22T09:40:15;2.03;;;1.38;;
18973;SDS011;9621;48.690;9.466;2023-07-22T09:42:44;1.83;;;1.40;;
18973;SDS011;9621;48.690;9.466;2023-07-22T09:45:12;1.60;;;1.30;;
18973;SDS011;9621;48.690;9.466;2023-07-22T09:47:44;2.05;;;1.50;;
18973;SDS011;9621;48.690;9.466;2023-07-22T09:50:14;2.45;;;1.63;;
18973;SDS011;9621;48.690;9.466;2023-07-22T09:52:45;1.40;;;1.30;;
18973;SDS011;9621;48.690;9.466;2023-07-22T09:55:17;1.65;;;1.20;;
18973;SDS011;9621;48.690;9.466;2023-07-22T09:57:45;2.28;;;1.23;;
18973;SDS011;9621;48.690;9.466;2023-07-22T10:00:14;2.53;;;1.40;;
18973;SDS011;9621;48.690;9.466;2023-07-22T10:02:46;3.72;;;1.40;;
18973;SDS011;9621;48.690;9.466;2023-07-22T10:05:15;1.65;;;1.25;;
18973;SDS011;9621;48.690;9.466;2023-07-22T10:07:43;2.25;;;1.58;;
18973;SDS011;9621;48.690;9.466;2023-07-22T10:10:12;2.25;;;1.25;;
18973;SDS011;9621;48.690;9.466;2023-07-22T10:12:41;1.67;;;1.17;;
18973;SDS011;9621;48.690;9.466;2023-07-22T10:15:09;1.50;;;1.27;;
18973;SDS011;9621;48.690;9.466;2023-07-22T10:17:37;4.82;;;1.50;;
18973;SDS011;9621;48.690;9.466;2023-07-22T10:20:06;3.03;;;1.40;;
18973;SDS011;9621;48.690;9.466;2023-07-22T10:22:35;2.95;;;1.58;;
18973;SDS011;9621;48.690;9.466;2023-07-22T10:25:03;2.80;;;1.27;;
18973;SDS011;9621;48.690;9.466;2023-07-22T10:27:32;1.52;;;1.40;;
18973;SDS011;9621;48.690;9.466;2023-07-22T10:30:00;2.08;;;1.33;;
18973;SDS011;9621;48.690;9.466;2023-07-22T10:32:31;2.58;;;1.63;;
18973;SDS011;9621;48.690;9.466;2023-07-22T10:34:59;2.22;;;1.15;;
18973;SDS011;9621;48.690;9.466;2023-07-22T10:37:30;2.13;;;1.38;;
18973;SDS011;9621;48.690;9.466;2023-07-22T10:39:59;2.58;;;1.52;;
18973;SDS011;9621;48.690;9.466;2023-07-22T10:42:26;2.90;;;1.52;;
18973;SDS011;9621;48.690;9.466;2023-07-22T10:44:53;1.50;;;1.05;;
18973;SDS011;9621;48.690;9.466;2023-07-22T10:47:33;1.85;;;1.40;;
18973;SDS011;9621;48.690;9.466;2023-07-22T10:50:05;4.70;;;1.40;;
18973;SDS011;9621;48.690;9.466;2023-07-22T10:52:39;2.42;;;1.40;;
18973;SDS011;9621;48.690;9.466;2023-07-22T10:55:17;4.00;;;1.50;;
18973;SDS011;9621;48.690;9.466;2023-07-22T10:57:48;1.83;;;1.15;;
18973;SDS011;9621;48.690;9.466;2023-07-22T11:00:19;2.47;;;1.42;;
18973;SDS011;9621;48.690;9.466;2023-07-22T11:02:47;1.55;;;1.27;;
18973;SDS011;9621;48.690;9.466;2023-07-22T11:05:46;1.85;;;1.40;;
18973;SDS011;9621;48.690;9.466;2023-07-22T11:08:15;1.83;;;1.40;;
18973;SDS011;9621;48.690;9.466;2023-07-22T11:10:52;2.05;;;1.20;;
18973;SDS011;9621;48.690;9.466;2023-07-22T11:13:26;2.88;;;1.40;;
18973;SDS011;9621;48.690;9.466;2023-07-22T11:15:57;1.83;;;1.33;;
18973;SDS011;9621;48.690;9.466;2023-07-22T11:18:35;1.70;;;1.50;;
18973;SDS011;9621;48.690;9.466;2023-07-22T11:21:06;1.70;;;1.15;;
18973;SDS011;9621;48.690;9.466;2023-07-22T11:23:35;2.25;;;1.40;;
18973;SDS011;9621;48.690;9.466;2023-07-22T11:26:02;3.83;;;1.40;;
18973;SDS011;9621;48.690;9.466;2023-07-22T11:28:30;2.28;;;1.30;;
18973;SDS011;9621;48.690;9.466;2023-07-22T11:30:57;2.75;;;1.30;;
18973;SDS011;9621;48.690;9.466;2023-07-22T11:33:25;2.42;;;1.50;;
18973;SDS011;9621;48.690;9.466;2023-07-22T11:36:03;4.70;;;1.45;;
18973;SDS011;9621;48.690;9.466;2023-07-22T11:38:30;2.17;;;1.30;;
18973;SDS011;9621;48.690;9.466;2023-07-22T11:40:58;1.48;;;1.27;;
18973;SDS011;9621;48.690;9.466;2023-07-22T11:43:28;1.52;;;1.20;;
18973;SDS011;9621;48.690;9.466;2023-07-22T11:45:54;2.50;;;1.55;;
18973;SDS011;9621;48.690;9.466;2023-07-22T11:48:21;2.65;;;1.75;;
18973;SDS011;9621;48.690;9.466;2023-07-22T11:50:48;2.10;;;1.63;;
18973;SDS011;9621;48.690;9.466;2023-07-22T11:53:15;2.45;;;1.90;;
18973;SDS011;9621;48.690;9.466;2023-07-22T11:55:42;2.63;;;1.40;;
18973;SDS011;9621;48.690;9.466;2023-07-22T11:58:11;2.25;;;1.50;;
18973;SDS011;9621;48.690;9.466;2023-07-22T12:00:41;2.70;;;1.50;;
18973;SDS011;9621;48.690;9.466;2023-07-22T12:03:09;5.97;;;1.60;;
18973;SDS011;9621;48.690;9.466;2023-07-22T12:05:36;2.88;;;1.50;;
18973;SDS011;9621;48.690;9.466;2023-07-22T12:08:03;4.50;;;1.90;;
18973;SDS011;9621;48.690;9.466;2023-07-22T12:10:31;9.20;;;2.45;;
18973;SDS011;9621;48.690;9.466;2023-07-22T12:13:00;3.53;;;2.08;;
18973;SDS011;9621;48.690;9.466;2023-07-22T12:15:29;4.68;;;1.85;;
18973;SDS011;9621;48.690;9.466;2023-07-22T12:17:56;4.82;;;2.10;;
18973;SDS011;9621;48.690;9.466;2023-07-22T12:20:26;2.22;;;1.33;;
18973;SDS011;9621;48.690;9.466;2023-07-22T12:22:54;2.72;;;1.67;;
18973;SDS011;9621;48.690;9.466;2023-07-22T12:25:22;3.75;;;1.55;;
18973;SDS011;9621;48.690;9.466;2023-07-22T12:27:49;2.10;;;1.77;;
18973;SDS011;9621;48.690;9.466;2023-07-22T12:30:16;2.45;;;1.40;;
18973;SDS011;9621;48.690;9.466;2023-07-22T12:32:45;3.25;;;1.80;;
18973;SDS011;9621;48.690;9.466;2023-07-22T12:35:12;2.00;;;1.67;;
18973;SDS011;9621;48.690;9.466;2023-07-22T12:37:39;2.63;;;1.70;;
18973;SDS011;9621;48.690;9.466;2023-07-22T12:40:06;2.10;;;1.50;;
18973;SDS011;9621;48.690;9.466;2023-07-22T12:42:34;4.95;;;1.38;;
18973;SDS011;9621;48.690;9.466;2023-07-22T12:45:01;3.08;;;1.90;;
18973;SDS011;9621;48.690;9.466;2023-07-22T12:47:29;5.95;;;2.25;;
18973;SDS011;9621;48.690;9.466;2023-07-22T12:49:57;2.85;;;1.60;;
18973;SDS011;9621;48.690;9.466;2023-07-22T12:52:24;3.63;;;1.98;;
18973;SDS011;9621;48.690;9.466;2023-07-22T12:54:51;4.47;;;1.85;;
18973;SDS011;9621;48.690;9.466;2023-07-22T12:57:18;2.90;;;1.65;;
18973;SDS011;9621;48.690;9.466;2023-07-22T12:59:44;1.95;;;1.60;;
18973;SDS011;9621;48.690;9.466;2023-07-22T13:02:11;3.10;;;1.50;;
18973;SDS011;9621;48.690;9.466;2023-07-22T13:04:38;5.38;;;1.75;;
18973;SDS011;9621;48.690;9.466;2023-07-22T13:07:06;2.33;;;1.67;;
18973;SDS011;9621;48.690;9.466;2023-07-22T13:09:33;8.65;;;1.90;;
18973;SDS011;9621;48.690;9.466;2023-07-22T13:12:00;2.58;;;1.85;;
18973;SDS011;9621;48.690;9.466;2023-07-22T13:14:27;2.13;;;1.50;;
18973;SDS011;9621;48.690;9.466;2023-07-22T13:16:53;2.15;;;1.60;;
18973;SDS011;9621;48.690;9.466;2023-07-22T13:19:20;1.80;;;1.50;;
18973;SDS011;9621;48.690;9.466;2023-07-22T13:21:47;1.65;;;1.55;;
18973;SDS011;9621;48.690;9.466;2023-07-22T13:24:15;2.67;;;1.88;;
18973;SDS011;9621;48.690;9.466;2023-07-22T13:26:42;2.20;;;1.50;;
18973;SDS011;9621;48.690;9.466;2023-07-22T13:29:09;3.42;;;1.63;;
18973;SDS011;9621;48.690;9.466;2023-07-22T13:31:36;2.40;;;1.42;;
18973;SDS011;9621;48.690;9.466;2023-07-22T13:34:03;3.22;;;2.03;;
18973;SDS011;9621;48.690;9.466;2023-07-22T13:36:29;2.83;;;1.98;;
18973;SDS011;9621;48.690;9.466;2023-07-22T13:38:56;4.18;;;2.00;;
18973;SDS011;9621;48.690;9.466;2023-07-22T13:41:24;2.28;;;1.65;;
18973;SDS011;9621;48.690;9.466;2023-07-22T13:43:51;2.00;;;1.42;;
18973;SDS011;9621;48.690;9.466;2023-07-22T13:46:18;2.00;;;1.58;;
18973;SDS011;9621;48.690;9.466;2023-07-22T13:48:45;3.28;;;1.70;;
18973;SDS011;9621;48.690;9.466;2023-07-22T13:51:12;3.20;;;2.13;;
18973;SDS011;9621;48.690;9.466;2023-07-22T13:53:40;2.88;;;1.80;;
18973;SDS011;9621;48.690;9.466;2023-07-22T13:56:07;5.28;;;2.22;;
18973;SDS011;9621;48.690;9.466;2023-07-22T13:58:35;2.00;;;1.80;;
18973;SDS011;9621;48.690;9.466;2023-07-22T14:01:02;2.35;;;1.98;;
18973;SDS011;9621;48.690;9.466;2023-07-22T14:03:29;2.45;;;1.80;;
18973;SDS011;9621;48.690;9.466;2023-07-22T14:05:56;4.05;;;2.10;;
18973;SDS011;9621;48.690;9.466;2023-07-22T14:08:23;3.25;;;2.13;;
18973;SDS011;9621;48.690;9.466;2023-07-22T14:10:50;3.53;;;2.30;;
18973;SDS011;9621;48.690;9.466;2023-07-22T14:13:17;6.53;;;2.65;;
18973;SDS011;9621;48.690;9.466;2023-07-22T14:15:45;2.63;;;2.10;;
18973;SDS011;9621;48.690;9.466;2023-07-22T14:18:12;4.53;;;2.00;;
18973;SDS011;9621;48.690;9.466;2023-07-22T14:20:42;3.42;;;2.38;;
18973;SDS011;9621;48.690;9.466;2023-07-22T14:23:09;9.45;;;2.55;;
18973;SDS011;9621;48.690;9.466;2023-07-22T14:25:36;2.50;;;2.20;;
18973;SDS011;9621;48.690;9.466;2023-07-22T14:28:03;2.55;;;2.35;;
18973;SDS011;9621;48.690;9.466;2023-07-22T14:30:30;4.20;;;2.10;;
18973;SDS011;9621;48.690;9.466;2023-07-22T14:32:58;3.55;;;2.80;;
18973;SDS011;9621;48.690;9.466;2023-07-22T14:35:25;4.95;;;2.45;;
18973;SDS011;9621;48.690;9.466;2023-07-22T14:37:52;2.33;;;1.98;;
18973;SDS011;9621;48.690;9.466;2023-07-22T14:40:18;2.58;;;2.35;;
18973;SDS011;9621;48.690;9.466;2023-07-22T14:42:45;3.55;;;2.25;;
18973;SDS011;9621;48.690;9.466;2023-07-22T14:45:12;5.25;;;2.67;;
18973;SDS011;9621;48.690;9.466;2023-07-22T14:47:39;6.32;;;2.90;;
18973;SDS011;9621;48.690;9.466;2023-07-22T14:50:08;3.85;;;2.40;;
18973;SDS011;9621;48.690;9.466;2023-07-22T14:52:35;3.83;;;3.00;;
18973;SDS011;9621;48.690;9.466;2023-07-22T14:55:02;5.07;;;2.55;;
18973;SDS011;9621;48.690;9.466;2023-07-22T14:57:30;3.60;;;2.55;;
18973;SDS011;9621;48.690;9.466;2023-07-22T14:59:57;3.08;;;2.50;;
18973;SDS011;9621;48.690;9.466;2023-07-22T15:02:24;3.67;;;2.72;;
18973;SDS011;9621;48.690;9.466;2023-07-22T15:04:51;4.15;;;3.05;;
18973;SDS011;9621;48.690;9.466;2023-07-22T15:07:19;4.28;;;3.10;;
18973;SDS011;9621;48.690;9.466;2023-07-22T15:09:46;4.28;;;3.10;;
18973;SDS011;9621;48.690;9.466;2023-07-22T15:12:13;3.67;;;2.65;;
18973;SDS011;9621;48.690;9.466;2023-07-22T15:14:40;3.85;;;2.95;;
18973;SDS011;9621;48.690;9.466;2023-07-22T15:17:07;3.50;;;2.80;;